sensor_id;sensor_type;location;lat;lon;timestamp;pressure;altitude;pressure_sealevel;temperature;humidity
69247;BME280;56358;56.328;43.992;2023-04-28T00:01:19;100364.97;;;9.91;72.86
69247;BME280;56358;56.328;43.992;2023-04-28T00:03:20;100442.03;;;10.34;72.68
69247;BME280;56358;56.328;43.992;2023-04-28T00:05:21;100313.19;;;9.56;72.64
69247;BME280;56358;56.328;43.992;2023-04-28T00:07:25;100423.22;;;10.23;72.58
69247;BME280;56358;56.328;43.992;2023-04-28T00:09:26;100439.63;;;10.43;72.75
69247;BME280;56358;56.328;43.992;2023-04-28T00:11:26;100408.03;;;10.23;72.74
69247;BME280;56358;56.328;43.992;2023-04-28T00:13:27;100439.50;;;10.44;73.07
69247;BME280;56358;56.328;43.992;2023-04-28T00:15:28;100434.03;;;10.46;73.34
69247;BME280;56358;56.328;43.992;2023-04-28T00:17:28;100390.59;;;10.18;73.22
69247;BME280;56358;56.328;43.992;2023-04-28T00:19:29;100414.19;;;10.37;73.34
69247;BME280;56358;56.328;43.992;2023-04-28T00:21:30;100440.72;;;10.51;73.61
69247;BME280;56358;56.328;43.992;2023-04-28T00:23:31;100428.53;;;10.47;73.62
69247;BME280;56358;56.328;43.992;2023-04-28T00:25:32;100299.81;;;9.68;73.99
69247;BME280;56358;56.328;43.992;2023-04-28T00:27:33;100438.66;;;10.55;74.02
69247;BME280;56358;56.328;43.992;2023-04-28T00:29:35;100414.19;;;10.37;74.52
69247;BME280;56358;56.328;43.992;2023-04-28T00:31:36;100358.06;;;10.11;74.77
69247;BME280;56358;56.328;43.992;2023-04-28T00:33:38;100433.19;;;10.56;75.16
69247;BME280;56358;56.328;43.992;2023-04-28T00:35:39;100419.66;;;10.47;75.27
69247;BME280;56358;56.328;43.992;2023-04-28T00:37:41;100451.94;;;10.56;75.62
69247;BME280;56358;56.328;43.992;2023-04-28T00:39:42;100443.31;;;10.53;76.06
69247;BME280;56358;56.328;43.992;2023-04-28T00:41:46;100452.19;;;10.53;76.65
69247;BME280;56358;56.328;43.992;2023-04-28T00:43:47;100433.56;;;10.52;76.25
69247;BME280;56358;56.328;43.992;2023-04-28T00:45:49;100428.31;;;10.50;76.14
69247;BME280;56358;56.328;43.992;2023-04-28T00:47:50;100441.59;;;10.52;76.74
69247;BME280;56358;56.328;43.992;2023-04-28T00:49:51;100436.38;;;10.50;76.67
69247;BME280;56358;56.328;43.992;2023-04-28T00:51:55;100441.72;;;10.50;76.99
69247;BME280;56358;56.328;43.992;2023-04-28T00:53:56;100424.03;;;10.36;76.95
69247;BME280;56358;56.328;43.992;2023-04-28T00:55:57;100433.78;;;10.49;77.00
69247;BME280;56358;56.328;43.992;2023-04-28T00:57:58;100443.53;;;10.50;76.41
69247;BME280;56358;56.328;43.992;2023-04-28T00:59:59;100430.63;;;10.44;76.65
69247;BME280;56358;56.328;43.992;2023-04-28T01:02:00;100359.28;;;9.96;76.08
69247;BME280;56358;56.328;43.992;2023-04-28T01:04:01;100409.13;;;10.32;75.70
69247;BME280;56358;56.328;43.992;2023-04-28T01:06:07;100429.53;;;10.46;75.92
69247;BME280;56358;56.328;43.992;2023-04-28T01:08:08;100439.75;;;10.52;76.22
69247;BME280;56358;56.328;43.992;2023-04-28T01:10:09;100445.00;;;10.54;76.23
69247;BME280;56358;56.328;43.992;2023-04-28T01:12:10;100440.50;;;10.54;76.70
69247;BME280;56358;56.328;43.992;2023-04-28T01:14:11;100445.00;;;10.54;76.94
69247;BME280;56358;56.328;43.992;2023-04-28T01:16:11;100440.72;;;10.51;77.11
69247;BME280;56358;56.328;43.992;2023-04-28T01:18:13;100439.13;;;10.49;76.88
69247;BME280;56358;56.328;43.992;2023-04-28T01:20:14;100437.66;;;10.45;76.34
69247;BME280;56358;56.328;43.992;2023-04-28T01:22:15;100364.63;;;9.96;74.90
69247;BME280;56358;56.328;43.992;2023-04-28T01:24:16;100392.16;;;10.09;74.49
69247;BME280;56358;56.328;43.992;2023-04-28T01:26:17;100443.75;;;10.35;73.62
69247;BME280;56358;56.328;43.992;2023-04-28T01:28:18;100368.25;;;9.83;73.68
69247;BME280;56358;56.328;43.992;2023-04-28T01:30:19;100387.00;;;9.95;73.45
69247;BME280;56358;56.328;43.992;2023-04-28T01:32:20;100452.13;;;10.31;73.34
69247;BME280;56358;56.328;43.992;2023-04-28T01:34:21;100398.47;;;9.97;73.04
69247;BME280;56358;56.328;43.992;2023-04-28T01:36:21;100450.28;;;10.31;72.56
69247;BME280;56358;56.328;43.992;2023-04-28T01:38:23;100389.56;;;9.96;72.32
69247;BME280;56358;56.328;43.992;2023-04-28T01:40:24;100380.19;;;9.90;71.84
69247;BME280;56358;56.328;43.992;2023-04-28T01:42:24;100374.84;;;9.90;72.12
69247;BME280;56358;56.328;43.992;2023-04-28T01:44:25;100328.72;;;9.51;71.77
69247;BME280;56358;56.328;43.992;2023-04-28T01:46:26;100451.19;;;10.43;71.95
69247;BME280;56358;56.328;43.992;2023-04-28T01:48:26;100461.69;;;10.46;71.96
69247;BME280;56358;56.328;43.992;2023-04-28T01:50:27;100459.03;;;10.46;72.15
69247;BME280;56358;56.328;43.992;2023-04-28T01:52:28;100450.22;;;10.44;72.06
69247;BME280;56358;56.328;43.992;2023-04-28T01:54:29;100462.53;;;10.47;71.25
69247;BME280;56358;56.328;43.992;2023-04-28T01:56:30;100458.91;;;10.48;71.18
69247;BME280;56358;56.328;43.992;2023-04-28T01:58:30;100452.53;;;10.49;71.00
69247;BME280;56358;56.328;43.992;2023-04-28T02:00:31;100460.50;;;10.50;70.99
69247;BME280;56358;56.328;43.992;2023-04-28T02:02:32;100470.22;;;10.51;70.79
69247;BME280;56358;56.328;43.992;2023-04-28T02:04:32;100472.69;;;10.54;70.73
69247;BME280;56358;56.328;43.992;2023-04-28T02:06:33;100472.56;;;10.56;70.64
69247;BME280;56358;56.328;43.992;2023-04-28T02:08:34;100464.25;;;10.59;70.59
69247;BME280;56358;56.328;43.992;2023-04-28T02:10:35;100459.03;;;10.57;70.85
69247;BME280;56358;56.328;43.992;2023-04-28T02:12:36;100450.34;;;10.54;70.76
69247;BME280;56358;56.328;43.992;2023-04-28T02:14:37;100394.00;;;10.20;70.64
69247;BME280;56358;56.328;43.992;2023-04-28T02:16:38;100474.25;;;10.68;70.30
69247;BME280;56358;56.328;43.992;2023-04-28T02:18:38;100459.38;;;10.64;70.39
69247;BME280;56358;56.328;43.992;2023-04-28T02:20:39;100472.81;;;10.76;70.24
69247;BME280;56358;56.328;43.992;2023-04-28T02:22:40;100468.91;;;10.80;69.89
69247;BME280;56358;56.328;43.992;2023-04-28T02:24:41;100472.19;;;10.83;69.90
69247;BME280;56358;56.328;43.992;2023-04-28T02:26:42;100467.31;;;10.88;70.12
69247;BME280;56358;56.328;43.992;2023-04-28T02:28:42;100468.91;;;10.91;70.57
69247;BME280;56358;56.328;43.992;2023-04-28T02:30:43;100453.19;;;10.86;70.43
69247;BME280;56358;56.328;43.992;2023-04-28T02:32:44;100480.25;;;11.06;70.54
69247;BME280;56358;56.328;43.992;2023-04-28T02:34:45;100471.84;;;11.11;71.04
69247;BME280;56358;56.328;43.992;2023-04-28T02:36:46;100455.38;;;11.04;71.24
69247;BME280;56358;56.328;43.992;2023-04-28T02:38:47;100484.25;;;11.23;71.16
69247;BME280;56358;56.328;43.992;2023-04-28T02:40:48;100473.13;;;11.28;71.75
69247;BME280;56358;56.328;43.992;2023-04-28T02:42:56;100483.66;;;11.31;71.76
69247;BME280;56358;56.328;43.992;2023-04-28T02:44:57;100495.09;;;11.33;72.36
69247;BME280;56358;56.328;43.992;2023-04-28T02:46:57;100418.44;;;10.85;73.19
69247;BME280;56358;56.328;43.992;2023-04-28T02:48:58;100494.75;;;11.37;72.53
69247;BME280;56358;56.328;43.992;2023-04-28T02:50:59;100490.81;;;11.42;72.56
69247;BME280;56358;56.328;43.992;2023-04-28T02:52:59;100501.16;;;11.46;72.28
69247;BME280;56358;56.328;43.992;2023-04-28T02:55:00;100425.63;;;11.07;71.82
69247;BME280;56358;56.328;43.992;2023-04-28T02:57:04;100504.56;;;11.60;72.01
69247;BME280;56358;56.328;43.992;2023-04-28T02:59:04;100480.19;;;11.51;71.87
69247;BME280;56358;56.328;43.992;2023-04-28T03:01:05;100435.94;;;11.23;71.49
69247;BME280;56358;56.328;43.992;2023-04-28T03:03:06;100475.91;;;11.49;71.50
69247;BME280;56358;56.328;43.992;2023-04-28T03:05:07;100504.28;;;11.74;71.48
69247;BME280;56358;56.328;43.992;2023-04-28T03:07:07;100505.88;;;11.77;71.53
69247;BME280;56358;56.328;43.992;2023-04-28T03:09:10;100488.03;;;11.76;71.51
69247;BME280;56358;56.328;43.992;2023-04-28T03:11:12;100506.69;;;11.88;71.25
69247;BME280;56358;56.328;43.992;2023-04-28T03:13:13;100478.50;;;11.83;71.62
69247;BME280;56358;56.328;43.992;2023-04-28T03:15:13;100481.28;;;11.93;72.31
69247;BME280;56358;56.328;43.992;2023-04-28T03:17:14;100471.50;;;11.91;72.35
69247;BME280;56358;56.328;43.992;2023-04-28T03:19:15;100487.47;;;12.04;72.46
69247;BME280;56358;56.328;43.992;2023-04-28T03:21:15;100498.72;;;12.10;71.60
69247;BME280;56358;56.328;43.992;2023-04-28T03:23:16;100434.66;;;11.82;71.54
69247;BME280;56358;56.328;43.992;2023-04-28T03:25:17;100461.97;;;11.99;71.45
69247;BME280;56358;56.328;43.992;2023-04-28T03:27:18;100514.13;;;12.29;71.20
69247;BME280;56358;56.328;43.992;2023-04-28T03:29:18;100436.81;;;12.00;71.38
69247;BME280;56358;56.328;43.992;2023-04-28T03:31:19;100442.97;;;12.12;70.53
69247;BME280;56358;56.328;43.992;2023-04-28T03:33:20;100502.25;;;12.52;70.67
69247;BME280;56358;56.328;43.992;2023-04-28T03:35:21;100480.28;;;12.47;70.20
69247;BME280;56358;56.328;43.992;2023-04-28T03:37:22;100509.97;;;12.67;70.02
69247;BME280;56358;56.328;43.992;2023-04-28T03:39:23;100507.47;;;12.75;70.06
69247;BME280;56358;56.328;43.992;2023-04-28T03:41:23;100468.19;;;12.63;69.72
69247;BME280;56358;56.328;43.992;2023-04-28T03:43:24;100497.91;;;12.82;70.08
69247;BME280;56358;56.328;43.992;2023-04-28T03:45:25;100485.00;;;12.86;69.16
69247;BME280;56358;56.328;43.992;2023-04-28T03:47:26;100501.66;;;13.01;69.20
69247;BME280;56358;56.328;43.992;2023-04-28T03:49:27;100509.63;;;13.12;68.37
69247;BME280;56358;56.328;43.992;2023-04-28T03:51:28;100505.53;;;13.18;68.15
69247;BME280;56358;56.328;43.992;2023-04-28T03:53:29;100512.25;;;13.23;67.88
69247;BME280;56358;56.328;43.992;2023-04-28T03:55:30;100475.19;;;13.06;67.58
69247;BME280;56358;56.328;43.992;2023-04-28T03:57:31;100442.56;;;12.89;67.20
69247;BME280;56358;56.328;43.992;2023-04-28T03:59:31;100516.28;;;13.39;66.91
69247;BME280;56358;56.328;43.992;2023-04-28T04:01:32;100516.72;;;13.44;66.41
69247;BME280;56358;56.328;43.992;2023-04-28T04:03:33;100517.31;;;13.48;65.67
69247;BME280;56358;56.328;43.992;2023-04-28T04:05:33;100491.34;;;13.37;65.44
69247;BME280;56358;56.328;43.992;2023-04-28T04:07:34;100517.63;;;13.54;65.14
69247;BME280;56358;56.328;43.992;2023-04-28T04:09:35;100506.41;;;13.49;64.71
69247;BME280;56358;56.328;43.992;2023-04-28T04:11:36;100387.91;;;12.89;64.63
69247;BME280;56358;56.328;43.992;2023-04-28T04:13:36;100521.06;;;13.76;64.38
69247;BME280;56358;56.328;43.992;2023-04-28T04:15:37;100516.25;;;13.80;64.07
69247;BME280;56358;56.328;43.992;2023-04-28T04:17:38;100529.88;;;13.88;64.10
69247;BME280;56358;56.328;43.992;2023-04-28T04:19:39;100513.25;;;13.93;63.47
69247;BME280;56358;56.328;43.992;2023-04-28T04:21:39;100514.81;;;13.95;63.61
69247;BME280;56358;56.328;43.992;2023-04-28T04:23:40;100508.59;;;13.95;64.06
69247;BME280;56358;56.328;43.992;2023-04-28T04:25:41;100515.84;;;14.04;64.16
69247;BME280;56358;56.328;43.992;2023-04-28T04:27:42;100521.50;;;14.11;64.25
69247;BME280;56358;56.328;43.992;2023-04-28T04:29:42;100511.00;;;14.17;63.98
69247;BME280;56358;56.328;43.992;2023-04-28T04:31:43;100489.28;;;14.09;63.71
69247;BME280;56358;56.328;43.992;2023-04-28T04:33:47;100525.31;;;14.28;63.87
69247;BME280;56358;56.328;43.992;2023-04-28T04:35:48;100522.38;;;14.31;63.78
69247;BME280;56358;56.328;43.992;2023-04-28T04:37:49;100510.44;;;14.23;63.25
69247;BME280;56358;56.328;43.992;2023-04-28T04:39:50;100529.72;;;14.38;62.52
69247;BME280;56358;56.328;43.992;2023-04-28T04:41:51;100539.78;;;14.46;62.14
69247;BME280;56358;56.328;43.992;2023-04-28T04:43:52;100527.88;;;14.49;62.26
69247;BME280;56358;56.328;43.992;2023-04-28T04:45:53;100521.75;;;14.56;62.40
69247;BME280;56358;56.328;43.992;2023-04-28T04:47:54;100519.94;;;14.67;62.24
69247;BME280;56358;56.328;43.992;2023-04-28T04:49:55;100529.41;;;14.81;61.99
69247;BME280;56358;56.328;43.992;2023-04-28T04:51:56;100535.63;;;14.91;61.95
69247;BME280;56358;56.328;43.992;2023-04-28T04:53:56;100505.78;;;14.93;61.83
69247;BME280;56358;56.328;43.992;2023-04-28T04:55:57;100535.41;;;15.12;61.69
69247;BME280;56358;56.328;43.992;2023-04-28T04:57:58;100530.97;;;15.21;60.95
69247;BME280;56358;56.328;43.992;2023-04-28T04:59:59;100478.19;;;14.99;60.95
69247;BME280;56358;56.328;43.992;2023-04-28T05:01:59;100479.22;;;14.98;60.19
69247;BME280;56358;56.328;43.992;2023-04-28T05:04:00;100538.84;;;15.42;60.31
69247;BME280;56358;56.328;43.992;2023-04-28T05:06:01;100538.63;;;15.53;59.95
69247;BME280;56358;56.328;43.992;2023-04-28T05:08:03;100534.94;;;15.54;59.57
69247;BME280;56358;56.328;43.992;2023-04-28T05:10:05;100516.47;;;15.50;59.51
69247;BME280;56358;56.328;43.992;2023-04-28T05:12:06;100538.13;;;15.68;59.24
69247;BME280;56358;56.328;43.992;2023-04-28T05:14:07;100543.63;;;15.76;59.01
69247;BME280;56358;56.328;43.992;2023-04-28T05:16:08;100534.66;;;15.75;59.05
69247;BME280;56358;56.328;43.992;2023-04-28T05:18:09;100543.88;;;15.83;59.16
69247;BME280;56358;56.328;43.992;2023-04-28T05:20:10;100550.25;;;15.91;58.86
69247;BME280;56358;56.328;43.992;2023-04-28T05:22:11;100544.53;;;15.95;59.10
69247;BME280;56358;56.328;43.992;2023-04-28T05:24:13;100551.66;;;15.96;58.79
69247;BME280;56358;56.328;43.992;2023-04-28T05:26:14;100541.81;;;15.95;58.37
69247;BME280;56358;56.328;43.992;2023-04-28T05:28:16;100551.56;;;16.05;58.67
69247;BME280;56358;56.328;43.992;2023-04-28T05:30:17;100539.44;;;16.09;58.46
69247;BME280;56358;56.328;43.992;2023-04-28T05:32:17;100513.72;;;16.05;58.32
69247;BME280;56358;56.328;43.992;2023-04-28T05:34:18;100487.75;;;15.95;58.00
69247;BME280;56358;56.328;43.992;2023-04-28T05:36:19;100543.22;;;16.35;57.32
69247;BME280;56358;56.328;43.992;2023-04-28T05:38:19;100509.81;;;16.26;56.94
69247;BME280;56358;56.328;43.992;2023-04-28T05:40:21;100532.53;;;16.51;56.51
69247;BME280;56358;56.328;43.992;2023-04-28T05:42:22;100517.31;;;16.50;55.76
69247;BME280;56358;56.328;43.992;2023-04-28T05:44:23;100534.22;;;16.70;55.48
69247;BME280;56358;56.328;43.992;2023-04-28T05:46:24;100523.72;;;16.75;54.87
69247;BME280;56358;56.328;43.992;2023-04-28T05:48:24;100538.09;;;16.94;55.17
69247;BME280;56358;56.328;43.992;2023-04-28T05:50:25;100469.03;;;16.64;54.85
69247;BME280;56358;56.328;43.992;2023-04-28T05:52:26;100531.97;;;17.18;54.91
69247;BME280;56358;56.328;43.992;2023-04-28T05:54:27;100532.00;;;17.26;54.36
69247;BME280;56358;56.328;43.992;2023-04-28T05:56:28;100537.13;;;17.38;53.88
69247;BME280;56358;56.328;43.992;2023-04-28T05:58:29;100538.72;;;17.49;53.01
69247;BME280;56358;56.328;43.992;2023-04-28T06:00:29;100496.13;;;17.33;52.15
69247;BME280;56358;56.328;43.992;2023-04-28T06:02:30;100535.88;;;17.67;52.14
69247;BME280;56358;56.328;43.992;2023-04-28T06:04:31;100534.88;;;17.76;52.25
69247;BME280;56358;56.328;43.992;2023-04-28T06:06:32;100532.88;;;17.86;52.19
69247;BME280;56358;56.328;43.992;2023-04-28T06:08:33;100533.28;;;18.00;51.87
69247;BME280;56358;56.328;43.992;2023-04-28T06:10:34;100475.59;;;17.73;50.27
69247;BME280;56358;56.328;43.992;2023-04-28T06:12:35;100529.75;;;18.16;50.31
69247;BME280;56358;56.328;43.992;2023-04-28T06:14:36;100532.81;;;18.21;50.62
69247;BME280;56358;56.328;43.992;2023-04-28T06:16:37;100526.03;;;18.25;50.74
69247;BME280;56358;56.328;43.992;2023-04-28T06:18:38;100523.97;;;18.27;50.97
69247;BME280;56358;56.328;43.992;2023-04-28T06:20:39;100530.09;;;18.37;50.19
69247;BME280;56358;56.328;43.992;2023-04-28T06:22:40;100472.94;;;18.14;49.71
69247;BME280;56358;56.328;43.992;2023-04-28T06:24:40;100484.47;;;18.33;49.44
69247;BME280;56358;56.328;43.992;2023-04-28T06:26:42;100534.66;;;18.70;49.14
69247;BME280;56358;56.328;43.992;2023-04-28T06:28:43;100537.03;;;18.81;48.82
69247;BME280;56358;56.328;43.992;2023-04-28T06:30:43;100526.31;;;18.88;48.29
69247;BME280;56358;56.328;43.992;2023-04-28T06:32:44;100528.06;;;18.89;47.80
69247;BME280;56358;56.328;43.992;2023-04-28T06:34:45;100516.66;;;18.77;47.90
69247;BME280;56358;56.328;43.992;2023-04-28T06:36:46;100530.41;;;18.92;48.13
69247;BME280;56358;56.328;43.992;2023-04-28T06:38:47;100515.63;;;18.95;48.32
69247;BME280;56358;56.328;43.992;2023-04-28T06:40:47;100527.78;;;19.15;48.22
69247;BME280;56358;56.328;43.992;2023-04-28T06:42:48;100525.78;;;19.09;47.11
69247;BME280;56358;56.328;43.992;2023-04-28T06:44:49;100477.63;;;18.95;46.72
69247;BME280;56358;56.328;43.992;2023-04-28T06:46:49;100531.81;;;19.36;46.28
69247;BME280;56358;56.328;43.992;2023-04-28T06:48:50;100520.72;;;19.46;46.18
69247;BME280;56358;56.328;43.992;2023-04-28T06:50:51;100494.13;;;19.24;45.64
69247;BME280;56358;56.328;43.992;2023-04-28T06:52:52;100535.56;;;19.66;44.35
69247;BME280;56358;56.328;43.992;2023-04-28T06:54:53;100529.09;;;19.67;45.11
69247;BME280;56358;56.328;43.992;2023-04-28T06:56:53;100541.81;;;19.83;45.24
69247;BME280;56358;56.328;43.992;2023-04-28T06:58:54;100527.19;;;19.84;45.03
69247;BME280;56358;56.328;43.992;2023-04-28T07:00:56;100514.09;;;19.88;44.68
69247;BME280;56358;56.328;43.992;2023-04-28T07:02:57;100537.44;;;20.05;44.41
69247;BME280;56358;56.328;43.992;2023-04-28T07:04:57;100537.88;;;20.09;44.39
69247;BME280;56358;56.328;43.992;2023-04-28T07:06:58;100528.13;;;20.23;44.49
69247;BME280;56358;56.328;43.992;2023-04-28T07:08:59;100509.34;;;20.05;44.28
69247;BME280;56358;56.328;43.992;2023-04-28T07:10:59;100487.59;;;20.05;43.86
69247;BME280;56358;56.328;43.992;2023-04-28T07:13:03;100513.88;;;20.36;43.27
69247;BME280;56358;56.328;43.992;2023-04-28T07:15:04;100532.25;;;20.57;42.88
69247;BME280;56358;56.328;43.992;2023-04-28T07:17:07;100534.44;;;20.62;42.15
69247;BME280;56358;56.328;43.992;2023-04-28T07:19:08;100540.84;;;20.69;41.73
69247;BME280;56358;56.328;43.992;2023-04-28T07:21:08;100525.97;;;20.56;41.30
69247;BME280;56358;56.328;43.992;2023-04-28T07:23:09;100543.19;;;20.72;41.39
69247;BME280;56358;56.328;43.992;2023-04-28T07:25:10;100545.13;;;20.86;41.50
69247;BME280;56358;56.328;43.992;2023-04-28T07:27:11;100545.88;;;20.95;41.41
69247;BME280;56358;56.328;43.992;2023-04-28T07:29:12;100491.63;;;20.70;41.00
69247;BME280;56358;56.328;43.992;2023-04-28T07:31:14;100535.09;;;21.02;41.13
69247;BME280;56358;56.328;43.992;2023-04-28T07:33:15;100489.78;;;20.86;40.96
69247;BME280;56358;56.328;43.992;2023-04-28T07:35:15;100531.69;;;21.15;40.94
69247;BME280;56358;56.328;43.992;2023-04-28T07:37:17;100506.22;;;21.07;40.70
69247;BME280;56358;56.328;43.992;2023-04-28T07:39:17;100520.78;;;21.30;40.45
69247;BME280;56358;56.328;43.992;2023-04-28T07:41:18;100527.63;;;21.40;40.02
69247;BME280;56358;56.328;43.992;2023-04-28T07:43:19;100512.00;;;21.49;39.68
69247;BME280;56358;56.328;43.992;2023-04-28T07:45:20;100455.53;;;21.28;39.02
69247;BME280;56358;56.328;43.992;2023-04-28T07:47:20;100520.94;;;21.73;38.52
69247;BME280;56358;56.328;43.992;2023-04-28T07:49:21;100525.81;;;21.77;38.43
69247;BME280;56358;56.328;43.992;2023-04-28T07:51:22;100518.66;;;21.76;38.38
69247;BME280;56358;56.328;43.992;2023-04-28T07:53:23;100503.22;;;21.84;38.56
69247;BME280;56358;56.328;43.992;2023-04-28T07:55:24;100514.28;;;21.97;38.26
69247;BME280;56358;56.328;43.992;2023-04-28T07:57:25;100505.88;;;21.99;37.57
69247;BME280;56358;56.328;43.992;2023-04-28T07:59:25;100517.78;;;22.13;37.16
69247;BME280;56358;56.328;43.992;2023-04-28T08:01:26;100511.28;;;22.14;37.24
69247;BME280;56358;56.328;43.992;2023-04-28T08:03:27;100508.63;;;22.20;36.81
69247;BME280;56358;56.328;43.992;2023-04-28T08:05:28;100510.38;;;22.28;35.95
69247;BME280;56358;56.328;43.992;2023-04-28T08:07:29;100524.13;;;22.35;36.49
69247;BME280;56358;56.328;43.992;2023-04-28T08:09:29;100509.50;;;22.42;35.96
69247;BME280;56358;56.328;43.992;2023-04-28T08:11:30;100507.91;;;22.55;36.25
69247;BME280;56358;56.328;43.992;2023-04-28T08:13:33;100503.53;;;22.60;35.81
69247;BME280;56358;56.328;43.992;2023-04-28T08:15:34;100508.16;;;22.88;35.94
69247;BME280;56358;56.328;43.992;2023-04-28T08:17:34;100497.91;;;23.04;34.71
69247;BME280;56358;56.328;43.992;2023-04-28T08:19:35;100505.97;;;23.12;34.73
69247;BME280;56358;56.328;43.992;2023-04-28T08:21:36;100445.53;;;22.93;34.12
69247;BME280;56358;56.328;43.992;2023-04-28T08:23:36;100441.88;;;22.86;33.63
69247;BME280;56358;56.328;43.992;2023-04-28T08:25:37;100479.34;;;23.21;33.51
69247;BME280;56358;56.328;43.992;2023-04-28T08:27:38;100493.69;;;23.30;34.00
69247;BME280;56358;56.328;43.992;2023-04-28T08:29:39;100496.59;;;23.28;34.61
69247;BME280;56358;56.328;43.992;2023-04-28T08:31:40;100472.22;;;23.33;34.53
69247;BME280;56358;56.328;43.992;2023-04-28T08:33:41;100420.22;;;23.26;33.83
69247;BME280;56358;56.328;43.992;2023-04-28T08:35:44;100491.97;;;23.84;32.93
69247;BME280;56358;56.328;43.992;2023-04-28T08:37:44;100477.84;;;23.80;32.57
69247;BME280;56358;56.328;43.992;2023-04-28T08:39:47;100495.22;;;24.01;32.41
69247;BME280;56358;56.328;43.992;2023-04-28T08:41:47;100485.72;;;23.90;32.43
69247;BME280;56358;56.328;43.992;2023-04-28T08:43:48;100433.72;;;23.35;31.59
69247;BME280;56358;56.328;43.992;2023-04-28T08:45:49;100489.38;;;23.55;31.71
69247;BME280;56358;56.328;43.992;2023-04-28T08:47:50;100494.44;;;23.65;31.34
69247;BME280;56358;56.328;43.992;2023-04-28T08:49:54;100487.75;;;23.81;31.42
69247;BME280;56358;56.328;43.992;2023-04-28T08:51:59;100455.31;;;23.71;30.24
69247;BME280;56358;56.328;43.992;2023-04-28T08:54:01;100487.22;;;24.06;30.56
69247;BME280;56358;56.328;43.992;2023-04-28T08:56:05;100473.72;;;24.24;30.43
69247;BME280;56358;56.328;43.992;2023-04-28T08:58:07;100486.16;;;24.54;30.07
69247;BME280;56358;56.328;43.992;2023-04-28T09:00:08;100471.84;;;24.72;29.61
69247;BME280;56358;56.328;43.992;2023-04-28T09:02:09;100465.91;;;24.55;29.59
69247;BME280;56358;56.328;43.992;2023-04-28T09:04:10;100372.56;;;23.76;29.94
69247;BME280;56358;56.328;43.992;2023-04-28T09:06:11;100454.94;;;24.62;29.65
69247;BME280;56358;56.328;43.992;2023-04-28T09:08:12;100478.09;;;25.06;29.35
69247;BME280;56358;56.328;43.992;2023-04-28T09:12:20;100458.53;;;25.48;28.53
69247;BME280;56358;56.328;43.992;2023-04-28T09:14:23;100465.09;;;25.79;28.12
69247;BME280;56358;56.328;43.992;2023-04-28T09:16:38;100472.31;;;26.12;27.10
69247;BME280;56358;56.328;43.992;2023-04-28T09:18:39;100457.50;;;25.81;27.92
69247;BME280;56358;56.328;43.992;2023-04-28T09:20:43;100444.81;;;25.48;28.59
69247;BME280;56358;56.328;43.992;2023-04-28T09:22:44;100402.84;;;24.88;29.12
69247;BME280;56358;56.328;43.992;2023-04-28T09:24:45;100458.97;;;24.66;29.19
69247;BME280;56358;56.328;43.992;2023-04-28T09:26:49;100471.41;;;24.62;29.77
69247;BME280;56358;56.328;43.992;2023-04-28T09:28:50;100470.97;;;24.58;29.82
69247;BME280;56358;56.328;43.992;2023-04-28T09:30:51;100474.78;;;24.30;30.35
69247;BME280;56358;56.328;43.992;2023-04-28T09:33:04;100462.56;;;24.73;29.94
69247;BME280;56358;56.328;43.992;2023-04-28T09:35:06;100463.84;;;24.70;29.91
69247;BME280;56358;56.328;43.992;2023-04-28T09:37:18;100423.59;;;24.17;29.88
69247;BME280;56358;56.328;43.992;2023-04-28T09:39:31;100405.63;;;23.81;30.28
69247;BME280;56358;56.328;43.992;2023-04-28T09:41:40;100456.66;;;23.96;30.22
69247;BME280;56358;56.328;43.992;2023-04-28T09:43:42;100480.47;;;24.02;30.87
69247;BME280;56358;56.328;43.992;2023-04-28T09:45:42;100486.31;;;23.92;31.14
69247;BME280;56358;56.328;43.992;2023-04-28T09:47:46;100446.66;;;23.61;31.01
69247;BME280;56358;56.328;43.992;2023-04-28T09:52:11;100411.38;;;23.18;31.17
69247;BME280;56358;56.328;43.992;2023-04-28T09:54:12;100473.19;;;23.60;31.05
69247;BME280;56358;56.328;43.992;2023-04-28T09:56:13;100474.69;;;23.70;31.21
69247;BME280;56358;56.328;43.992;2023-04-28T09:58:14;100471.75;;;23.78;31.57
69247;BME280;56358;56.328;43.992;2023-04-28T10:00:17;100460.66;;;24.00;31.71
69247;BME280;56358;56.328;43.992;2023-04-28T10:02:20;100488.28;;;24.18;31.47
69247;BME280;56358;56.328;43.992;2023-04-28T10:04:21;100461.09;;;23.97;30.31
69247;BME280;56358;56.328;43.992;2023-04-28T10:06:22;100481.50;;;24.01;30.50
69247;BME280;56358;56.328;43.992;2023-04-28T10:08:24;100491.19;;;23.90;29.47
69247;BME280;56358;56.328;43.992;2023-04-28T10:10:26;100482.69;;;23.71;29.26
69247;BME280;56358;56.328;43.992;2023-04-28T10:12:28;100512.50;;;23.53;29.06
69247;BME280;56358;56.328;43.992;2023-04-28T10:14:30;100481.84;;;23.22;29.88
69247;BME280;56358;56.328;43.992;2023-04-28T10:16:31;100495.50;;;23.16;30.87
69247;BME280;56358;56.328;43.992;2023-04-28T10:18:32;100487.78;;;22.91;31.53
69247;BME280;56358;56.328;43.992;2023-04-28T10:20:34;100523.25;;;22.84;31.17
69247;BME280;56358;56.328;43.992;2023-04-28T10:27:11;100522.28;;;21.99;33.97
69247;BME280;56358;56.328;43.992;2023-04-28T10:29:12;100529.56;;;21.76;34.79
69247;BME280;56358;56.328;43.992;2023-04-28T10:31:15;100466.94;;;21.17;35.41
69247;BME280;56358;56.328;43.992;2023-04-28T10:33:23;100452.94;;;20.90;35.48
69247;BME280;56358;56.328;43.992;2023-04-28T10:40:34;100547.53;;;20.81;36.97